Latest Weather Observations for Ivanhoe Airport

IDN60801

Issued at 11:32 pm EST Wednesday 26 April 2017 (issued every 30 minutes, with the page automatically refreshed every 10 minutes)

About weather observations | Map of weather stations | Latest weather observations for NSW | Other Formats
Station Details ID: 049000 Name: IVANHOE AERODROME AWS Lat: -32.88 Lon: 144.31 Height: 100.0 m
Data from the previous 72 hours. | See also: Recent months at Ivanhoe Airport
Date/Time
EST
Temp
°C
App
Temp
°C
Dew
Point
°C
Rel
Hum
%
Delta-T
°C
Wind Press
QNH
hPa
Press
MSL
hPa
Rain since
9am
mm
Dir  Spd
km/h
Gust
km/h
Spd
kts
Gust
kts
26/11:30pm 10.0 5.9 4.6 69 2.4 SW 15 20 8 11 1020.8 1020.6 1.0
26/11:00pm 9.5 5.1 4.5 71 2.2 SW 17 20 9 11 1020.8 1020.6 1.0
26/10:30pm 9.4 5.7 4.4 71 2.2 SW 13 17 7 9 1020.9 1020.7 1.0
26/10:00pm 9.7 5.3 4.5 70 2.3 SW 17 20 9 11 1020.8 1020.6 1.0
26/09:30pm 9.9 6.3 5.1 72 2.2 SW 13 20 7 11 1020.7 1020.5 1.0
26/09:00pm 10.3 6.4 5.3 71 2.3 SW 15 22 8 12 1020.1 1019.8 1.0
26/08:30pm 10.7 6.4 5.3 69 2.5 SW 17 24 9 13 1019.9 1019.6 1.0
26/08:00pm 10.7 6.8 5.3 69 2.5 SW 15 20 8 11 1019.6 1019.3 1.0
26/07:30pm 11.1 7.2 5.2 67 2.7 SW 15 20 8 11 1019.4 1019.1 1.0
26/07:00pm 11.7 7.0 5.1 64 3.0 SW 19 26 10 14 1019.1 1018.8 1.0
26/06:30pm 12.2 6.6 5.6 64 3.1 SSW 24 35 13 19 1018.6 1018.3 1.0
26/06:00pm 13.2 7.2 3.6 52 4.3 SSW 24 33 13 18 1017.8 1017.5 1.0
26/05:30pm 13.9 8.1 4.2 52 4.5 SSW 24 35 13 19 1017.4 1017.1 1.0
26/05:00pm 14.4 7.5 4.4 51 4.6 SSW 30 44 16 24 1016.8 1016.5 1.0
26/04:30pm 15.3 8.5 5.2 51 4.8 SW 30 50 16 27 1016.5 1016.2 1.0
26/04:26pm 15.3 8.9 5.0 50 4.9 SW 28 48 15 26 1016.3 1016.1 1.0
26/04:00pm 15.1 7.8 4.5 49 5.0 SW 32 48 17 26 1016.0 1015.8 1.0
26/03:46pm 15.5 8.3 5.7 52 4.7 SW 33 52 18 28 1015.9 1015.7 1.0
26/03:30pm 15.5 8.6 4.6 48 5.1 SW 30 46 16 25 1015.6 1015.4 1.0
26/03:00pm 15.0 7.7 4.7 50 4.8 SSW 32 44 17 24 1015.3 1015.1 1.0
26/02:30pm 15.4 8.8 5.9 53 4.6 SW 30 46 16 25 1015.0 1014.8 1.0
26/02:16pm 15.7 9.5 6.2 53 4.6 SW 28 46 15 25 1014.9 1014.7 1.0
26/02:00pm 15.5 8.2 5.4 51 4.8 SW 33 46 18 25 1014.9 1014.7 1.0
26/01:30pm 15.0 7.8 5.8 54 4.4 SW 33 48 18 26 1014.6 1014.4 1.0
26/01:00pm 14.7 7.3 5.2 53 4.5 SW 33 52 18 28 1014.5 1014.3 1.0
26/12:54pm 14.9 7.8 5.7 54 4.4 SW 32 52 17 28 1014.5 1014.3 1.0
26/12:30pm 14.6 7.0 5.9 56 4.2 SW 35 48 19 26 1014.5 1014.3 1.0
26/12:00pm 14.2 6.7 6.1 58 3.9 SW 35 54 19 29 1014.4 1014.2 1.0
26/11:43am 14.5 8.2 7.3 62 3.6 WSW 30 48 16 26 1014.4 1014.2 1.0
26/11:30am 13.9 7.5 7.0 63 3.4 SW 30 43 16 23 1014.3 1014.1 1.0
26/11:17am 14.2 7.9 7.5 64 3.3 SW 30 50 16 27 1014.3 1014.1 1.0
26/11:00am 14.0 7.9 8.2 68 2.9 WSW 30 46 16 25 1014.2 1014.0 1.0
26/10:30am 13.0 6.5 8.3 73 2.3 WSW 32 48 17 26 1014.0 1013.8 1.0
26/10:06am 12.3 6.5 9.3 82 1.5 WSW 30 48 16 26 1013.8 1013.6 1.0
26/10:00am 12.1 7.2 10.0 87 1.1 WSW 26 35 14 19 1013.8 1013.6 1.0
26/09:30am 10.2 3.6 8.6 90 0.8 WSW 33 54 18 29 1013.8 1013.6 1.0
26/09:19am 10.5 5.2 9.7 95 0.4 WSW 28 50 15 27 1013.8 1013.6 0.8
26/09:00am 11.1 5.5 10.0 93 0.6 WSW 30 43 16 23 1013.4 1013.2 1.8
26/08:57am 11.3 6.0 10.0 92 0.7 WSW 28 43 15 23 1013.3 1013.1 1.8
26/08:30am 11.4 8.2 11.1 98 0.2 WSW 19 24 10 13 1012.7 1012.5 1.6
26/08:00am 11.1 6.7 10.5 96 0.3 WSW 24 33 13 18 1012.3 1012.1 1.4
26/07:43am 11.2 4.0 9.1 87 1.1 WSW 37 63 20 34 1012.1 1011.9 0.8
26/07:36am 14.0 8.8 10.2 78 2.0 W 28 50 15 27 1011.1 1010.8 0.0
26/07:30am 14.2 9.7 10.0 76 2.2 W 24 50 13 27 1011.0 1010.7 0.0
26/07:00am 13.7 10.4 9.4 75 2.2 WNW 17 24 9 13 1010.8 1010.5 0.0
26/06:30am 14.0 10.2 9.2 73 2.5 W 19 32 10 17 1010.6 1010.3 0.0
26/06:00am 14.7 10.8 9.5 71 2.7 W 20 37 11 20 1010.5 1010.2 0.0
26/05:30am 15.0 11.3 10.2 73 2.5 W 20 32 11 17 1010.5 1010.2 0.0
26/05:00am 15.0 12.1 11.0 77 2.1 WNW 17 24 9 13 1010.5 1010.2 0.0
26/04:30am 14.8 12.2 10.6 76 2.2 W 15 22 8 12 1010.4 1010.1 0.0
26/04:00am 15.4 12.4 10.8 74 2.5 W 17 24 9 13 1010.3 1010.0 0.0
26/03:30am 15.7 12.5 11.3 75 2.4 W 19 24 10 13 1010.5 1010.2 0.0
26/03:00am 15.0 13.1 11.8 81 1.7 WNW 13 19 7 10 1010.6 1010.3 0.0
26/02:30am 14.9 12.6 11.9 82 1.6 WNW 15 20 8 11 1010.8 1010.5 0.0
26/02:00am 15.1 12.9 12.1 82 1.6 WNW 15 20 8 11 1010.8 1010.5 0.0
26/01:30am 14.7 12.3 11.5 81 1.7 NW 15 19 8 10 1010.7 1010.4 0.0
26/01:00am 14.2 12.4 10.8 80 1.8 NW 11 13 6 7 1010.8 1010.5 0.0
26/12:30am 14.8 12.7 11.2 79 1.9 WNW 13 15 7 8 1010.8 1010.5 0.0
26/12:00am 14.8 13.0 11.0 78 2.0 NW 11 15 6 8 1011.0 1010.7 0.0
 
Date/Time
EST
Temp
°C
App
Temp
°C
Dew
Point
°C
Rel
Hum
%
Delta-T
°C
Wind Press
QNH
hPa
Press
MSL
hPa
Rain since
9am
mm
Dir  Spd
km/h
Gust
km/h
Spd
kts
Gust
kts
25/11:30pm 14.8 12.7 11.2 79 1.9 NW 13 17 7 9 1011.0 1010.7 0.0
25/11:00pm 14.8 12.7 11.0 78 2.0 NW 13 17 7 9 1010.9 1010.6 0.0
25/10:30pm 15.0 12.9 11.0 77 2.1 NW 13 17 7 9 1011.0 1010.7 0.0
25/10:00pm 14.9 12.7 10.9 77 2.1 NW 13 15 7 8 - - 0.0
25/09:30pm 14.9 13.1 10.9 77 2.1 NW 11 13 6 7 - - 0.0
25/09:00pm 15.0 13.2 10.8 76 2.2 NW 11 13 6 7 - - 0.0
25/08:30pm 15.5 13.7 10.9 74 2.5 NW 11 13 6 7 - - 0.0
25/08:00pm 15.9 14.4 10.7 71 2.8 WNW 9 11 5 6 - - 0.0
25/07:30pm 16.6 14.8 10.9 69 3.1 WNW 11 13 6 7 - - 0.0
25/07:00pm 17.9 16.1 11.0 64 3.7 W 11 13 6 7 - - 0.0
25/06:30pm 18.7 16.9 11.0 61 4.2 W 11 15 6 8 - - 0.0
25/06:00pm 19.6 17.1 10.9 57 4.8 WSW 15 22 8 12 - - 0.0
25/05:30pm 20.8 17.9 10.9 53 5.4 W 17 26 9 14 - - 0.0
25/05:00pm 21.1 18.5 12.0 56 5.1 WSW 17 22 9 12 - - 0.0
25/04:30pm 21.6 19.1 12.2 55 5.3 WSW 17 26 9 14 - - 0.0
25/04:00pm 21.9 19.1 12.5 55 5.4 W 19 28 10 15 - - 0.0
25/03:30pm 21.4 18.7 12.8 58 4.9 WSW 19 28 10 15 - - 0.0
25/03:00pm 22.7 20.4 14.0 58 5.1 W 19 26 10 14 - - 0.0
25/02:30pm 22.5 19.5 13.6 57 5.2 W 22 33 12 18 - - 0.0
25/02:00pm 21.5 18.7 13.2 59 4.8 W 20 33 11 18 - - 0.0
25/01:30pm 22.1 20.3 14.5 62 4.5 W 17 26 9 14 - - 0.0
25/01:00pm 21.2 19.5 15.7 71 3.3 W 19 28 10 15 - - 0.0
25/12:30pm 20.5 18.6 15.3 72 3.1 SW 19 30 10 16 - - 0.0
25/12:00pm 21.4 20.8 16.6 74 2.9 W 15 24 8 13 - - 0.0
25/11:30am 20.5 19.7 17.1 81 2.1 W 17 24 9 13 - - 0.0
25/11:00am 19.7 18.8 16.9 84 1.7 W 17 26 9 14 - - 0.0
25/10:30am 19.2 19.0 17.5 90 1.0 W 15 24 8 13 - - 0.0
25/10:00am 18.9 18.9 18.2 96 0.4 W 15 24 8 13 1012.7 1012.5 0.0
25/09:30am 18.3 17.4 17.8 97 0.3 WNW 19 26 10 14 1012.9 1012.7 0.0
25/09:00am 18.1 17.1 17.9 99 0.1 WNW 20 28 11 15 1012.9 1012.7 8.4
25/08:30am 18.2 18.2 18.0 99 0.1 NW 15 20 8 11 1012.7 1012.5 8.4
25/08:00am 17.6 17.3 17.4 99 0.1 NW 15 22 8 12 1012.4 1012.2 8.4
25/07:30am 17.7 17.5 17.5 99 0.1 NW 15 20 8 11 1012.4 1012.2 8.0
25/07:00am 17.8 17.2 17.6 99 0.1 NW 17 22 9 12 1012.1 1011.9 7.8
25/06:30am 17.9 17.4 17.7 99 0.1 NW 17 24 9 13 1012.1 1011.9 7.6
25/06:00am 17.9 18.1 17.7 99 0.1 NW 13 17 7 9 1011.9 1011.7 7.4
25/05:30am 18.0 17.6 18.0 100 0.0 NW 17 19 9 10 1012.0 1011.8 7.4
25/05:00am 17.9 17.4 17.9 100 0.0 WNW 17 20 9 11 1011.8 1011.6 7.2
25/04:30am 17.7 17.8 17.5 99 0.1 NW 13 19 7 10 1011.8 1011.6 5.2
25/04:00am 17.7 19.0 17.5 99 0.1 NW 7 11 4 6 1011.1 1010.8 4.2
25/03:30am 17.7 18.2 17.5 99 0.1 NW 11 15 6 8 1011.6 1011.4 3.4
25/03:00am 17.7 20.3 17.4 98 0.2 CALM 0 0 0 0 1011.5 1011.2 2.0
25/02:30am 17.7 17.5 16.7 94 0.6 WNW 13 20 7 11 1011.9 1011.7 2.0
25/02:00am 19.0 18.9 15.9 82 1.8 NW 11 20 6 11 1011.6 1011.4 0.4
25/01:30am 19.7 19.4 15.4 76 2.5 N 11 13 6 7 1011.8 1011.6 0.2
25/01:00am 20.2 18.8 14.6 70 3.3 NE 15 19 8 10 1011.9 1011.7 0.2
25/12:30am 20.1 19.0 14.2 69 3.4 NE 13 15 7 8 1012.2 1012.0 0.2
25/12:00am 20.1 19.0 14.2 69 3.4 NE 13 15 7 8 1012.6 1012.4 0.2
 
Date/Time
EST
Temp
°C
App
Temp
°C
Dew
Point
°C
Rel
Hum
%
Delta-T
°C
Wind Press
QNH
hPa
Press
MSL
hPa
Rain since
9am
mm
Dir  Spd
km/h
Gust
km/h
Spd
kts
Gust
kts
24/11:30pm 20.1 19.5 14.5 70 3.3 ENE 11 15 6 8 1013.1 1012.9 0.2
24/11:00pm 19.8 19.2 14.6 72 3.0 ENE 11 13 6 7 1013.6 1013.4 0.2
24/10:30pm 20.2 19.7 15.0 72 3.1 ENE 11 13 6 7 1014.0 1013.8 0.2
24/10:00pm 19.8 19.3 15.0 74 2.8 ENE 11 11 6 6 1014.3 1014.1 0.2
24/09:30pm 20.2 20.6 15.2 73 3.0 NE 7 9 4 5 1014.6 1014.4 0.2
24/09:00pm 20.3 20.3 15.3 73 3.0 NE 9 9 5 5 1014.7 1014.5 0.2
24/08:30pm 20.9 21.0 15.4 71 3.3 ENE 9 13 5 7 1014.6 1014.4 0.2
24/08:00pm 20.9 20.5 15.2 70 3.4 ENE 11 13 6 7 1014.6 1014.4 0.2
24/07:30pm 20.7 20.7 15.3 71 3.2 E 9 11 5 6 1014.6 1014.4 0.2
24/07:00pm 20.7 21.3 15.9 74 2.9 ESE 7 9 4 5 1014.8 1014.6 0.2
24/06:30pm 20.8 21.3 15.6 72 3.1 SE 7 9 4 5 1014.7 1014.5 0.2
24/06:00pm 21.0 21.7 16.0 73 3.0 SE 7 9 4 5 1014.6 1014.4 0.2
24/05:30pm 21.6 22.3 16.1 71 3.3 SSE 7 9 4 5 1014.6 1014.4 0.2
24/05:00pm 21.7 21.2 15.8 69 3.6 SW 13 17 7 9 1014.5 1014.3 0.2
24/04:30pm 25.8 24.5 12.6 44 7.7 NNW 11 17 6 9 1014.3 1014.1 0.2
24/04:00pm 25.8 24.5 12.6 44 7.7 N 11 15 6 8 1014.3 1014.1 0.2
24/03:30pm 26.6 24.9 12.6 42 8.2 N 13 24 7 13 1014.5 1014.3 0.2
24/03:00pm 26.7 25.0 12.4 41 8.3 NNW 13 20 7 11 1014.7 1014.5 0.2
24/02:30pm 26.8 25.2 12.8 42 8.2 N 13 20 7 11 1015.0 1014.8 0.2
24/02:00pm 26.8 24.6 12.1 40 8.5 NW 15 24 8 13 1015.3 1015.1 0.2
24/01:30pm 26.6 25.2 13.3 43 7.8 N 13 20 7 11 1015.8 1015.6 0.2
24/01:00pm 25.9 24.5 13.4 46 7.4 NNE 13 20 7 11 1016.5 1016.2 0.2
24/12:30pm 25.4 23.6 13.3 47 7.1 N 15 26 8 14 1017.0 1016.7 0.2
24/12:00pm 24.9 22.2 12.8 47 7.0 NNE 19 28 10 15 1017.6 1017.3 0.2
24/11:30am 25.5 22.8 13.0 46 7.3 NNE 19 26 10 14 1018.0 1017.7 0.2
24/11:00am 25.2 22.9 14.0 49 6.6 NNE 19 24 10 13 1018.5 1018.2 0.2
24/10:30am 24.9 23.7 14.1 51 6.4 NE 13 20 7 11 1018.9 1018.6 0.2
24/10:00am 24.3 23.2 14.4 54 5.9 NNE 13 19 7 10 1019.3 1019.0 0.0
24/09:30am 23.5 22.7 15.0 59 5.1 NE 13 17 7 9 1019.4 1019.1 0.0
24/09:00am 21.7 22.3 16.9 74 2.9 ENE 9 11 5 6 1019.6 1019.3 0.0
24/08:30am 19.1 20.1 16.9 87 1.3 NNE 7 7 4 4 1020.0 1019.7 0.0
24/08:00am 19.3 19.7 16.2 82 1.9 NE 9 9 5 5 1019.9 1019.6 0.0
24/07:30am 18.9 20.6 16.1 84 1.7 NW 2 7 1 4 1019.7 1019.4 0.0
24/07:00am 19.5 18.9 14.5 73 2.9 NNW 11 15 6 8 1019.8 1019.5 0.0
24/06:30am 18.9 18.5 14.2 74 2.7 NNW 9 9 5 5 1019.4 1019.1 0.0
24/06:00am 18.8 18.8 14.3 75 2.6 NNW 7 9 4 5 1019.2 1018.9 0.0
24/05:30am 18.5 18.1 14.2 76 2.5 NNW 9 9 5 5 1018.9 1018.6 0.0
24/05:00am 18.3 18.2 13.8 75 2.6 NNW 7 9 4 5 1018.7 1018.4 0.0
24/04:30am 18.3 18.2 13.8 75 2.6 NNW 7 9 4 5 1018.9 1018.6 0.0
24/04:00am 18.4 18.3 13.9 75 2.6 NNW 7 7 4 4 1018.9 1018.6 0.0
24/03:30am 18.4 18.4 13.7 74 2.7 NNW 6 7 3 4 1018.9 1018.6 0.0
24/03:00am 18.5 18.4 13.4 72 2.9 NNW 6 6 3 3 1019.0 1018.7 0.0
24/02:30am 18.7 18.7 13.6 72 2.9 NNW 6 9 3 5 1019.3 1019.0 0.0
24/02:00am 18.8 19.8 13.2 70 3.2 CALM 0 0 0 0 1019.4 1019.1 0.0
24/01:30am 19.1 20.3 13.7 71 3.1 CALM 0 0 0 0 1019.5 1019.2 0.0
24/01:00am 19.2 20.2 13.2 68 3.4 CALM 0 0 0 0 1019.6 1019.3 0.0
24/12:30am 19.7 20.7 13.2 66 3.7 CALM 0 0 0 0 1019.8 1019.5 0.0
24/12:00am 20.2 20.6 13.6 66 3.8 NNW 4 6 2 3 1020.4 1020.2 0.0

Other Formats:

Comma delimited format used in spreadsheet applications
http://www.bom.gov.au/fwo/IDN60801/IDN60801.95697.axf

JavaScript Object Notation format (JSON) in row-major order
http://www.bom.gov.au/fwo/IDN60801/IDN60801.95697.json